sensor_id;sensor_type;location;lat;lon;timestamp;pressure;altitude;pressure_sealevel;temperature;humidity
11114;BME280;5610;52.154;9.198;2023-02-12T00:02:34;102761.72;;;9.39;100.00
11114;BME280;5610;52.154;9.198;2023-02-12T00:05:19;102758.97;;;9.42;100.00
11114;BME280;5610;52.154;9.198;2023-02-12T00:08:05;102763.88;;;9.22;100.00
11114;BME280;5610;52.154;9.198;2023-02-12T00:10:50;102761.03;;;9.29;100.00
11114;BME280;5610;52.154;9.198;2023-02-12T00:13:36;102762.66;;;9.36;100.00
11114;BME280;5610;52.154;9.198;2023-02-12T00:16:24;102759.28;;;9.28;100.00
11114;BME280;5610;52.154;9.198;2023-02-12T00:19:09;102768.22;;;9.26;100.00
11114;BME280;5610;52.154;9.198;2023-02-12T00:21:55;102770.75;;;9.32;100.00
11114;BME280;5610;52.154;9.198;2023-02-12T00:24:40;102768.84;;;9.37;100.00
11114;BME280;5610;52.154;9.198;2023-02-12T00:27:25;102770.47;;;9.44;100.00
11114;BME280;5610;52.154;9.198;2023-02-12T00:30:11;102766.97;;;9.42;100.00
11114;BME280;5610;52.154;9.198;2023-02-12T00:32:58;102769.56;;;9.45;100.00
11114;BME280;5610;52.154;9.198;2023-02-12T00:35:43;102765.13;;;9.46;100.00
11114;BME280;5610;52.154;9.198;2023-02-12T00:38:29;102778.34;;;9.49;100.00
11114;BME280;5610;52.154;9.198;2023-02-12T00:41:14;102778.56;;;9.40;100.00
11114;BME280;5610;52.154;9.198;2023-02-12T00:43:59;102776.56;;;9.49;100.00
11114;BME280;5610;52.154;9.198;2023-02-12T00:46:45;102773.25;;;9.40;100.00
11114;BME280;5610;52.154;9.198;2023-02-12T00:49:32;102778.31;;;9.50;100.00
11114;BME280;5610;52.154;9.198;2023-02-12T00:52:18;102787.56;;;9.34;100.00
11114;BME280;5610;52.154;9.198;2023-02-12T00:55:04;102795.97;;;9.54;100.00
11114;BME280;5610;52.154;9.198;2023-02-12T00:57:50;102793.94;;;9.66;100.00
11114;BME280;5610;52.154;9.198;2023-02-12T01:00:35;102797.50;;;9.64;100.00
11114;BME280;5610;52.154;9.198;2023-02-12T01:03:21;102791.44;;;9.59;100.00
11114;BME280;5610;52.154;9.198;2023-02-12T01:06:08;102803.56;;;9.71;100.00
11114;BME280;5610;52.154;9.198;2023-02-12T01:08:53;102798.28;;;9.70;100.00
11114;BME280;5610;52.154;9.198;2023-02-12T01:11:40;102807.31;;;9.62;100.00
11114;BME280;5610;52.154;9.198;2023-02-12T01:14:25;102812.50;;;9.69;100.00
11114;BME280;5610;52.154;9.198;2023-02-12T01:17:11;102816.00;;;9.71;100.00
11114;BME280;5610;52.154;9.198;2023-02-12T01:19:57;102814.22;;;9.71;100.00
11114;BME280;5610;52.154;9.198;2023-02-12T01:22:44;102822.13;;;9.74;100.00
11114;BME280;5610;52.154;9.198;2023-02-12T01:25:30;102822.97;;;9.76;100.00
11114;BME280;5610;52.154;9.198;2023-02-12T01:28:16;102811.44;;;9.76;100.00
11114;BME280;5610;52.154;9.198;2023-02-12T01:31:07;102807.41;;;9.59;100.00
11114;BME280;5610;52.154;9.198;2023-02-12T01:33:54;102821.41;;;9.68;100.00
11114;BME280;5610;52.154;9.198;2023-02-12T01:36:40;102825.03;;;9.63;100.00
11114;BME280;5610;52.154;9.198;2023-02-12T01:39:26;102834.84;;;9.61;100.00
11114;BME280;5610;52.154;9.198;2023-02-12T01:42:14;102819.97;;;9.51;100.00
11114;BME280;5610;52.154;9.198;2023-02-12T01:45:43;102823.84;;;9.36;100.00
11114;BME280;5610;52.154;9.198;2023-02-12T01:48:31;102822.41;;;9.23;100.00
11114;BME280;5610;52.154;9.198;2023-02-12T01:51:19;102829.50;;;9.21;100.00
11114;BME280;5610;52.154;9.198;2023-02-12T01:54:06;102814.53;;;9.17;100.00
11114;BME280;5610;52.154;9.198;2023-02-12T01:56:53;102824.34;;;9.14;100.00
11114;BME280;5610;52.154;9.198;2023-02-12T01:59:40;102817.19;;;9.17;100.00
11114;BME280;5610;52.154;9.198;2023-02-12T02:02:27;102808.44;;;9.12;100.00
11114;BME280;5610;52.154;9.198;2023-02-12T02:05:22;102811.28;;;9.01;100.00
11114;BME280;5610;52.154;9.198;2023-02-12T02:08:10;102808.03;;;8.89;100.00
11114;BME280;5610;52.154;9.198;2023-02-12T02:10:56;102819.44;;;8.95;100.00
11114;BME280;5610;52.154;9.198;2023-02-12T02:13:43;102810.59;;;8.93;100.00
11114;BME280;5610;52.154;9.198;2023-02-12T02:16:51;102815.25;;;8.80;100.00
11114;BME280;5610;52.154;9.198;2023-02-12T02:20:05;102800.31;;;8.75;100.00
11114;BME280;5610;52.154;9.198;2023-02-12T02:23:08;102807.34;;;8.77;100.00
11114;BME280;5610;52.154;9.198;2023-02-12T02:26:27;102797.56;;;8.81;100.00
11114;BME280;5610;52.154;9.198;2023-02-12T02:32:35;102791.09;;;8.93;100.00
11114;BME280;5610;52.154;9.198;2023-02-12T02:35:27;102791.59;;;8.67;100.00
11114;BME280;5610;52.154;9.198;2023-02-12T02:38:28;102800.94;;;8.88;100.00
11114;BME280;5610;52.154;9.198;2023-02-12T02:41:18;102788.50;;;8.90;100.00
11114;BME280;5610;52.154;9.198;2023-02-12T02:44:10;102793.91;;;8.85;100.00
11114;BME280;5610;52.154;9.198;2023-02-12T02:46:59;102804.47;;;8.90;100.00
11114;BME280;5610;52.154;9.198;2023-02-12T02:49:51;102801.81;;;8.90;100.00
11114;BME280;5610;52.154;9.198;2023-02-12T02:52:42;102793.72;;;8.96;100.00
11114;BME280;5610;52.154;9.198;2023-02-12T02:55:31;102797.16;;;8.99;100.00
11114;BME280;5610;52.154;9.198;2023-02-12T02:58:22;102796.50;;;8.90;100.00
11114;BME280;5610;52.154;9.198;2023-02-12T03:01:13;102800.06;;;8.87;100.00
11114;BME280;5610;52.154;9.198;2023-02-12T03:04:05;102794.50;;;8.99;100.00
11114;BME280;5610;52.154;9.198;2023-02-12T03:06:55;102791.25;;;8.85;100.00
11114;BME280;5610;52.154;9.198;2023-02-12T03:09:45;102796.44;;;8.91;100.00
11114;BME280;5610;52.154;9.198;2023-02-12T03:12:36;102804.34;;;8.94;100.00
11114;BME280;5610;52.154;9.198;2023-02-12T03:15:25;102802.56;;;8.96;100.00
11114;BME280;5610;52.154;9.198;2023-02-12T03:18:20;102809.06;;;8.82;100.00
11114;BME280;5610;52.154;9.198;2023-02-12T03:21:11;102807.97;;;8.92;100.00
11114;BME280;5610;52.154;9.198;2023-02-12T03:24:01;102803.00;;;8.75;100.00
11114;BME280;5610;52.154;9.198;2023-02-12T03:26:51;102807.88;;;8.96;100.00
11114;BME280;5610;52.154;9.198;2023-02-12T03:29:38;102805.94;;;9.04;100.00
11114;BME280;5610;52.154;9.198;2023-02-12T03:32:29;102806.84;;;9.02;100.00
11114;BME280;5610;52.154;9.198;2023-02-12T03:35:20;102815.47;;;9.15;100.00
11114;BME280;5610;52.154;9.198;2023-02-12T03:38:18;102814.41;;;9.22;100.00
11114;BME280;5610;52.154;9.198;2023-02-12T03:41:10;102817.28;;;9.13;100.00
11114;BME280;5610;52.154;9.198;2023-02-12T03:44:04;102819.78;;;9.20;100.00
11114;BME280;5610;52.154;9.198;2023-02-12T03:46:58;102817.00;;;9.26;100.00
11114;BME280;5610;52.154;9.198;2023-02-12T03:49:52;102818.25;;;9.10;100.00
11114;BME280;5610;52.154;9.198;2023-02-12T03:52:38;102824.34;;;9.14;100.00
11114;BME280;5610;52.154;9.198;2023-02-12T03:55:23;102819.16;;;9.07;100.00
11114;BME280;5610;52.154;9.198;2023-02-12T03:58:14;102824.56;;;9.04;100.00
11114;BME280;5610;52.154;9.198;2023-02-12T04:01:03;102831.63;;;9.05;100.00
11114;BME280;5610;52.154;9.198;2023-02-12T04:03:49;102827.00;;;9.14;100.00
11114;BME280;5610;52.154;9.198;2023-02-12T04:06:34;102839.28;;;9.21;100.00
11114;BME280;5610;52.154;9.198;2023-02-12T04:09:20;102835.94;;;9.11;100.00
11114;BME280;5610;52.154;9.198;2023-02-12T04:12:19;102836.81;;;9.12;100.00
11114;BME280;5610;52.154;9.198;2023-02-12T04:15:15;102846.59;;;9.11;100.00
11114;BME280;5610;52.154;9.198;2023-02-12T04:18:09;102858.41;;;8.95;100.00
11114;BME280;5610;52.154;9.198;2023-02-12T04:21:03;102857.34;;;9.05;100.00
11114;BME280;5610;52.154;9.198;2023-02-12T04:23:58;102851.81;;;9.14;100.00
11114;BME280;5610;52.154;9.198;2023-02-12T04:26:50;102861.44;;;9.21;100.00
11114;BME280;5610;52.154;9.198;2023-02-12T04:29:43;102865.84;;;9.24;100.00
11114;BME280;5610;52.154;9.198;2023-02-12T04:32:37;102864.09;;;9.21;100.00
11114;BME280;5610;52.154;9.198;2023-02-12T04:35:28;102866.00;;;9.15;100.00
11114;BME280;5610;52.154;9.198;2023-02-12T04:38:20;102866.84;;;9.18;100.00
11114;BME280;5610;52.154;9.198;2023-02-12T04:41:06;102863.19;;;9.24;100.00
11114;BME280;5610;52.154;9.198;2023-02-12T04:43:52;102863.09;;;9.27;100.00
11114;BME280;5610;52.154;9.198;2023-02-12T04:46:37;102874.66;;;9.26;100.00
11114;BME280;5610;52.154;9.198;2023-02-12T04:49:24;102879.88;;;9.30;100.00
11114;BME280;5610;52.154;9.198;2023-02-12T04:52:10;102878.16;;;9.28;100.00
11114;BME280;5610;52.154;9.198;2023-02-12T04:54:55;102862.09;;;9.32;100.00
11114;BME280;5610;52.154;9.198;2023-02-12T04:57:40;102870.88;;;9.38;100.00
11114;BME280;5610;52.154;9.198;2023-02-12T05:00:26;102865.50;;;9.39;100.00
11114;BME280;5610;52.154;9.198;2023-02-12T05:03:11;102874.31;;;9.41;100.00
11114;BME280;5610;52.154;9.198;2023-02-12T05:06:02;102871.66;;;9.41;100.00
11114;BME280;5610;52.154;9.198;2023-02-12T05:08:48;102858.31;;;9.43;100.00
11114;BME280;5610;52.154;9.198;2023-02-12T05:11:33;102862.72;;;9.44;100.00
11114;BME280;5610;52.154;9.198;2023-02-12T05:14:18;102876.88;;;9.47;100.00
11114;BME280;5610;52.154;9.198;2023-02-12T05:17:04;102867.13;;;9.46;100.00
11114;BME280;5610;52.154;9.198;2023-02-12T05:19:49;102867.97;;;9.48;100.00
11114;BME280;5610;52.154;9.198;2023-02-12T05:22:36;102865.38;;;9.45;100.00
11114;BME280;5610;52.154;9.198;2023-02-12T05:25:21;102867.13;;;9.46;100.00
11114;BME280;5610;52.154;9.198;2023-02-12T05:28:07;102870.72;;;9.44;100.00
11114;BME280;5610;52.154;9.198;2023-02-12T05:30:52;102873.38;;;9.45;100.00
11114;BME280;5610;52.154;9.198;2023-02-12T05:33:37;102870.72;;;9.44;100.00
11114;BME280;5610;52.154;9.198;2023-02-12T05:36:23;102867.16;;;9.45;100.00
11114;BME280;5610;52.154;9.198;2023-02-12T05:39:10;102869.88;;;9.42;100.00
11114;BME280;5610;52.154;9.198;2023-02-12T05:41:55;102865.44;;;9.42;100.00
11114;BME280;5610;52.154;9.198;2023-02-12T05:44:40;102866.25;;;9.46;100.00
11114;BME280;5610;52.154;9.198;2023-02-12T05:47:26;102876.88;;;9.47;100.00
11114;BME280;5610;52.154;9.198;2023-02-12T05:50:12;102878.56;;;9.50;100.00
11114;BME280;5610;52.154;9.198;2023-02-12T05:52:58;102876.78;;;9.50;100.00
11114;BME280;5610;52.154;9.198;2023-02-12T05:55:45;102881.31;;;9.47;100.00
11114;BME280;5610;52.154;9.198;2023-02-12T05:58:30;102876.00;;;9.47;100.00
11114;BME280;5610;52.154;9.198;2023-02-12T06:01:19;102884.84;;;9.47;100.00
11114;BME280;5610;52.154;9.198;2023-02-12T06:04:09;102873.31;;;9.47;100.00
11114;BME280;5610;52.154;9.198;2023-02-12T06:06:55;102883.09;;;9.46;100.00
11114;BME280;5610;52.154;9.198;2023-02-12T06:09:41;102876.03;;;9.44;100.00
11114;BME280;5610;52.154;9.198;2023-02-12T06:12:27;102878.69;;;9.45;100.00
11114;BME280;5610;52.154;9.198;2023-02-12T06:15:12;102880.44;;;9.46;100.00
11114;BME280;5610;52.154;9.198;2023-02-12T06:17:58;102876.03;;;9.44;100.00
11114;BME280;5610;52.154;9.198;2023-02-12T06:20:43;102882.22;;;9.46;100.00
11114;BME280;5610;52.154;9.198;2023-02-12T06:23:28;102883.09;;;9.46;100.00
11114;BME280;5610;52.154;9.198;2023-02-12T06:26:14;102881.28;;;9.48;100.00
11114;BME280;5610;52.154;9.198;2023-02-12T06:29:01;102879.53;;;9.47;100.00
11114;BME280;5610;52.154;9.198;2023-02-12T06:31:46;102882.19;;;9.47;100.00
11114;BME280;5610;52.154;9.198;2023-02-12T06:34:32;102876.88;;;9.47;100.00
11114;BME280;5610;52.154;9.198;2023-02-12T06:37:17;102881.31;;;9.47;100.00
11114;BME280;5610;52.154;9.198;2023-02-12T06:40:03;102891.09;;;9.46;100.00
11114;BME280;5610;52.154;9.198;2023-02-12T06:42:48;102899.97;;;9.45;100.00
11114;BME280;5610;52.154;9.198;2023-02-12T06:45:35;102895.53;;;9.44;100.00
11114;BME280;5610;52.154;9.198;2023-02-12T06:48:20;102903.53;;;9.44;100.00
11114;BME280;5610;52.154;9.198;2023-02-12T06:51:07;102904.38;;;9.46;100.00
11114;BME280;5610;52.154;9.198;2023-02-12T06:53:54;102913.28;;;9.45;100.00
11114;BME280;5610;52.154;9.198;2023-02-12T06:56:39;102918.56;;;9.47;100.00
11114;BME280;5610;52.154;9.198;2023-02-12T06:59:24;102922.06;;;9.49;100.00
11114;BME280;5610;52.154;9.198;2023-02-12T07:02:11;102922.94;;;9.49;100.00
11114;BME280;5610;52.154;9.198;2023-02-12T07:04:56;102927.41;;;9.49;100.00
11114;BME280;5610;52.154;9.198;2023-02-12T07:07:42;102930.00;;;9.50;100.00
11114;BME280;5610;52.154;9.198;2023-02-12T07:10:27;102930.00;;;9.50;100.00
11114;BME280;5610;52.154;9.198;2023-02-12T07:13:12;102938.88;;;9.52;100.00
11114;BME280;5610;52.154;9.198;2023-02-12T07:15:58;102946.81;;;9.54;100.00
11114;BME280;5610;52.154;9.198;2023-02-12T07:18:45;102950.22;;;9.60;100.00
11114;BME280;5610;52.154;9.198;2023-02-12T07:21:30;102951.06;;;9.62;100.00
11114;BME280;5610;52.154;9.198;2023-02-12T07:24:16;102958.09;;;9.67;100.00
11114;BME280;5610;52.154;9.198;2023-02-12T07:27:02;102957.19;;;9.68;100.00
11114;BME280;5610;52.154;9.198;2023-02-12T07:29:47;102951.91;;;9.66;100.00
11114;BME280;5610;52.154;9.198;2023-02-12T07:32:33;102965.16;;;9.68;100.00
11114;BME280;5610;52.154;9.198;2023-02-12T07:35:19;102965.13;;;9.69;100.00
11114;BME280;5610;52.154;9.198;2023-02-12T07:38:05;102974.91;;;9.69;100.00
11114;BME280;5610;52.154;9.198;2023-02-12T07:40:50;102967.78;;;9.69;100.00
11114;BME280;5610;52.154;9.198;2023-02-12T07:43:35;102967.72;;;9.72;100.00
11114;BME280;5610;52.154;9.198;2023-02-12T07:46:22;102962.38;;;9.74;100.00
11114;BME280;5610;52.154;9.198;2023-02-12T07:49:12;102973.88;;;9.76;100.00
11114;BME280;5610;52.154;9.198;2023-02-12T07:51:59;102977.31;;;9.79;100.00
11114;BME280;5610;52.154;9.198;2023-02-12T07:54:45;102967.59;;;9.78;100.00
11114;BME280;5610;52.154;9.198;2023-02-12T07:57:31;102969.34;;;9.81;100.00
11114;BME280;5610;52.154;9.198;2023-02-12T08:00:17;102979.00;;;9.85;100.00
11114;BME280;5610;52.154;9.198;2023-02-12T08:03:02;102971.78;;;9.90;100.00
11114;BME280;5610;52.154;9.198;2023-02-12T08:05:47;102968.16;;;9.94;100.00
11114;BME280;5610;52.154;9.198;2023-02-12T08:08:34;102971.56;;;9.99;100.00
11114;BME280;5610;52.154;9.198;2023-02-12T08:11:22;102973.31;;;10.00;100.00
11114;BME280;5610;52.154;9.198;2023-02-12T08:14:10;102978.56;;;10.05;100.00
11114;BME280;5610;52.154;9.198;2023-02-12T08:16:56;102974.94;;;10.09;100.00
11114;BME280;5610;52.154;9.198;2023-02-12T08:19:42;102981.88;;;10.14;100.00
11114;BME280;5610;52.154;9.198;2023-02-12T08:22:27;102983.50;;;10.22;100.00
11114;BME280;5610;52.154;9.198;2023-02-12T08:25:14;102993.19;;;10.27;100.00
11114;BME280;5610;52.154;9.198;2023-02-12T08:28:00;102994.00;;;10.31;100.00
11114;BME280;5610;52.154;9.198;2023-02-12T08:30:45;102995.66;;;10.35;100.00
11114;BME280;5610;52.154;9.198;2023-02-12T08:33:30;102995.63;;;10.38;100.00
11114;BME280;5610;52.154;9.198;2023-02-12T08:36:17;102993.72;;;10.43;100.00
11114;BME280;5610;52.154;9.198;2023-02-12T08:39:04;102994.53;;;10.47;100.00
11114;BME280;5610;52.154;9.198;2023-02-12T08:41:52;103003.50;;;10.42;100.00
11114;BME280;5610;52.154;9.198;2023-02-12T08:44:38;102998.94;;;10.48;100.00
11114;BME280;5610;52.154;9.198;2023-02-12T08:47:23;102998.00;;;10.50;100.00
11114;BME280;5610;52.154;9.198;2023-02-12T08:50:09;103004.09;;;10.55;100.00
11114;BME280;5610;52.154;9.198;2023-02-12T08:52:54;103008.50;;;10.56;100.00
11114;BME280;5610;52.154;9.198;2023-02-12T08:55:47;103005.78;;;10.59;100.00
11114;BME280;5610;52.154;9.198;2023-02-12T08:58:34;103001.38;;;10.57;100.00
11114;BME280;5610;52.154;9.198;2023-02-12T09:01:21;103008.72;;;10.47;100.00
11114;BME280;5610;52.154;9.198;2023-02-12T09:04:08;103010.38;;;10.53;100.00
11114;BME280;5610;52.154;9.198;2023-02-12T09:06:56;103010.25;;;10.59;100.00
11114;BME280;5610;52.154;9.198;2023-02-12T09:09:41;103011.09;;;10.59;100.00
11114;BME280;5610;52.154;9.198;2023-02-12T09:12:26;103008.34;;;10.62;100.00
11114;BME280;5610;52.154;9.198;2023-02-12T09:15:13;103012.63;;;10.69;100.00
11114;BME280;5610;52.154;9.198;2023-02-12T09:17:58;103012.47;;;10.76;100.00
11114;BME280;5610;52.154;9.198;2023-02-12T09:20:46;103016.78;;;10.81;100.00
11114;BME280;5610;52.154;9.198;2023-02-12T09:23:32;103021.44;;;10.73;100.00
11114;BME280;5610;52.154;9.198;2023-02-12T09:26:18;103026.72;;;10.75;100.00
11114;BME280;5610;52.154;9.198;2023-02-12T09:29:04;103026.78;;;10.73;100.00
11114;BME280;5610;52.154;9.198;2023-02-12T09:31:51;103020.75;;;10.65;100.00
11114;BME280;5610;52.154;9.198;2023-02-12T09:34:36;103028.94;;;10.56;100.00
11114;BME280;5610;52.154;9.198;2023-02-12T09:37:22;103026.31;;;10.15;100.00
11114;BME280;5610;52.154;9.198;2023-02-12T09:40:15;103026.41;;;10.51;100.00
11114;BME280;5610;52.154;9.198;2023-02-12T09:43:06;103028.72;;;10.66;100.00
11114;BME280;5610;52.154;9.198;2023-02-12T09:45:59;103023.16;;;10.76;100.00
11114;BME280;5610;52.154;9.198;2023-02-12T09:48:53;103026.34;;;10.90;100.00
11114;BME280;5610;52.154;9.198;2023-02-12T09:51:48;103030.28;;;10.75;100.00
11114;BME280;5610;52.154;9.198;2023-02-12T09:54:37;103037.75;;;10.96;100.00
11114;BME280;5610;52.154;9.198;2023-02-12T09:57:26;103031.34;;;11.04;100.00
11114;BME280;5610;52.154;9.198;2023-02-12T10:00:17;103033.84;;;11.10;100.00
11114;BME280;5610;52.154;9.198;2023-02-12T10:03:04;103036.38;;;11.16;100.00
11114;BME280;5610;52.154;9.198;2023-02-12T10:06:00;103031.75;;;11.22;100.00
11114;BME280;5610;52.154;9.198;2023-02-12T10:08:58;103028.94;;;11.27;100.00
11114;BME280;5610;52.154;9.198;2023-02-12T10:11:51;103036.31;;;11.17;100.00
11114;BME280;5610;52.154;9.198;2023-02-12T10:15:02;103045.97;;;11.23;100.00
11114;BME280;5610;52.154;9.198;2023-02-12T10:18:00;103032.75;;;11.18;100.00
11114;BME280;5610;52.154;9.198;2023-02-12T10:20:58;103035.34;;;11.20;100.00
11114;BME280;5610;52.154;9.198;2023-02-12T10:23:56;103039.56;;;11.30;100.00
11114;BME280;5610;52.154;9.198;2023-02-12T10:26:47;103043.94;;;11.33;100.00
11114;BME280;5610;52.154;9.198;2023-02-12T10:29:37;103033.91;;;11.41;100.00
11114;BME280;5610;52.154;9.198;2023-02-12T10:32:28;103028.00;;;11.62;100.00
11114;BME280;5610;52.154;9.198;2023-02-12T10:35:17;103036.28;;;11.86;100.00
11114;BME280;5610;52.154;9.198;2023-02-12T10:38:06;103029.50;;;12.03;100.00
11114;BME280;5610;52.154;9.198;2023-02-12T10:40:58;103031.25;;;12.06;100.00
11114;BME280;5610;52.154;9.198;2023-02-12T10:43:45;103030.25;;;12.08;100.00
11114;BME280;5610;52.154;9.198;2023-02-12T10:46:30;103035.19;;;12.22;100.00
11114;BME280;5610;52.154;9.198;2023-02-12T10:49:16;103035.19;;;12.22;100.00
11114;BME280;5610;52.154;9.198;2023-02-12T10:52:09;103030.41;;;12.32;100.00
11114;BME280;5610;52.154;9.198;2023-02-12T10:54:58;103031.66;;;12.50;100.00
11114;BME280;5610;52.154;9.198;2023-02-12T10:57:44;103022.63;;;12.80;100.00
11114;BME280;5610;52.154;9.198;2023-02-12T11:00:31;103016.16;;;12.87;100.00
11114;BME280;5610;52.154;9.198;2023-02-12T11:03:19;103022.75;;;13.04;100.00
11114;BME280;5610;52.154;9.198;2023-02-12T11:06:11;103015.59;;;13.04;100.00
11114;BME280;5610;52.154;9.198;2023-02-12T11:08:58;103020.31;;;12.96;100.00
11114;BME280;5610;52.154;9.198;2023-02-12T11:11:45;103025.59;;;12.99;100.00
11114;BME280;5610;52.154;9.198;2023-02-12T11:14:31;103022.56;;;12.83;100.00
11114;BME280;5610;52.154;9.198;2023-02-12T11:17:23;103028.47;;;12.93;100.00
11114;BME280;5610;52.154;9.198;2023-02-12T11:20:24;103023.31;;;12.87;100.00
11114;BME280;5610;52.154;9.198;2023-02-12T11:23:24;103016.53;;;12.77;100.00
11114;BME280;5610;52.154;9.198;2023-02-12T11:26:23;103007.78;;;12.72;100.00
11114;BME280;5610;52.154;9.198;2023-02-12T11:29:18;103015.91;;;12.95;100.00
11114;BME280;5610;52.154;9.198;2023-02-12T11:32:05;103009.09;;;13.38;100.00
11114;BME280;5610;52.154;9.198;2023-02-12T11:35:04;103001.34;;;13.55;100.00
11114;BME280;5610;52.154;9.198;2023-02-12T11:37:51;103012.91;;;13.56;100.00
11114;BME280;5610;52.154;9.198;2023-02-12T11:40:37;103005.53;;;13.62;100.00
11114;BME280;5610;52.154;9.198;2023-02-12T11:43:23;103010.03;;;13.62;100.00
11114;BME280;5610;52.154;9.198;2023-02-12T11:46:18;103007.13;;;13.68;100.00
11114;BME280;5610;52.154;9.198;2023-02-12T11:49:06;103005.63;;;14.29;100.00
11114;BME280;5610;52.154;9.198;2023-02-12T11:51:53;102999.47;;;15.54;100.00
11114;BME280;5610;52.154;9.198;2023-02-12T11:54:41;102994.28;;;17.35;99.48
11114;BME280;5610;52.154;9.198;2023-02-12T11:57:35;102990.84;;;19.23;79.21
11114;BME280;5610;52.154;9.198;2023-02-12T12:00:24;102981.34;;;23.08;58.75
11114;BME280;5610;52.154;9.198;2023-02-12T12:03:16;102965.31;;;27.79;44.78
11114;BME280;5610;52.154;9.198;2023-02-12T12:06:20;102961.44;;;29.16;40.02
11114;BME280;5610;52.154;9.198;2023-02-12T12:09:12;102964.78;;;25.92;43.30
11114;BME280;5610;52.154;9.198;2023-02-12T12:12:07;102960.06;;;23.02;48.62
11114;BME280;5610;52.154;9.198;2023-02-12T12:14:57;102970.31;;;20.47;54.32
11114;BME280;5610;52.154;9.198;2023-02-12T12:18:08;102969.84;;;18.36;62.82
11114;BME280;5610;52.154;9.198;2023-02-12T12:21:21;102969.38;;;17.30;71.35
11114;BME280;5610;52.154;9.198;2023-02-12T12:24:14;102975.75;;;16.22;80.12
11114;BME280;5610;52.154;9.198;2023-02-12T12:27:07;102969.22;;;15.30;90.30
11114;BME280;5610;52.154;9.198;2023-02-12T12:30:16;102969.50;;;14.62;100.00
11114;BME280;5610;52.154;9.198;2023-02-12T12:33:05;102962.06;;;14.01;100.00
11114;BME280;5610;52.154;9.198;2023-02-12T12:36:05;102965.44;;;13.59;100.00
11114;BME280;5610;52.154;9.198;2023-02-12T12:39:05;102968.22;;;13.33;100.00
11114;BME280;5610;52.154;9.198;2023-02-12T12:42:12;102967.19;;;13.10;100.00
11114;BME280;5610;52.154;9.198;2023-02-12T12:45:15;102964.44;;;12.87;100.00
11114;BME280;5610;52.154;9.198;2023-02-12T12:48:15;102960.13;;;12.56;100.00
11114;BME280;5610;52.154;9.198;2023-02-12T12:51:15;102962.38;;;12.14;100.00
11114;BME280;5610;52.154;9.198;2023-02-12T12:54:15;102957.75;;;11.91;100.00
11114;BME280;5610;52.154;9.198;2023-02-12T12:57:11;102963.91;;;11.62;100.00
11114;BME280;5610;52.154;9.198;2023-02-12T13:03:30;102961.50;;;11.22;100.00
11114;BME280;5610;52.154;9.198;2023-02-12T13:06:31;102958.44;;;11.36;100.00
11114;BME280;5610;52.154;9.198;2023-02-12T13:09:39;102957.69;;;11.31;100.00
11114;BME280;5610;52.154;9.198;2023-02-12T13:12:52;102952.94;;;11.09;100.00
11114;BME280;5610;52.154;9.198;2023-02-12T13:15:44;102952.69;;;11.18;100.00
11114;BME280;5610;52.154;9.198;2023-02-12T13:18:41;102949.56;;;11.35;100.00
11114;BME280;5610;52.154;9.198;2023-02-12T13:21:36;102953.75;;;11.44;100.00
11114;BME280;5610;52.154;9.198;2023-02-12T13:24:31;102953.75;;;11.44;100.00
11114;BME280;5610;52.154;9.198;2023-02-12T13:27:23;102942.94;;;11.48;100.00
11114;BME280;5610;52.154;9.198;2023-02-12T13:30:18;102941.00;;;11.53;100.00
11114;BME280;5610;52.154;9.198;2023-02-12T13:33:08;102942.75;;;11.54;100.00
11114;BME280;5610;52.154;9.198;2023-02-12T13:35:57;102940.06;;;11.56;100.00
11114;BME280;5610;52.154;9.198;2023-02-12T13:38:47;102936.50;;;11.55;100.00
11114;BME280;5610;52.154;9.198;2023-02-12T13:41:38;102934.19;;;11.43;100.00
11114;BME280;5610;52.154;9.198;2023-02-12T13:44:31;102938.06;;;11.32;100.00
11114;BME280;5610;52.154;9.198;2023-02-12T13:47:25;102939.06;;;11.27;100.00
11114;BME280;5610;52.154;9.198;2023-02-12T13:50:25;102941.94;;;11.21;100.00
11114;BME280;5610;52.154;9.198;2023-02-12T13:53:21;102944.44;;;11.26;100.00
11114;BME280;5610;52.154;9.198;2023-02-12T13:56:18;102941.72;;;11.29;100.00
11114;BME280;5610;52.154;9.198;2023-02-12T13:59:38;102941.00;;;11.22;100.00
11114;BME280;5610;52.154;9.198;2023-02-12T14:05:32;102945.75;;;11.11;100.00
11114;BME280;5610;52.154;9.198;2023-02-12T14:08:33;102939.34;;;11.18;100.00
11114;BME280;5610;52.154;9.198;2023-02-12T14:11:22;102939.38;;;11.17;100.00
11114;BME280;5610;52.154;9.198;2023-02-12T14:14:08;102933.16;;;11.16;100.00
11114;BME280;5610;52.154;9.198;2023-02-12T14:16:55;102946.56;;;11.15;100.00
11114;BME280;5610;52.154;9.198;2023-02-12T14:19:53;102940.25;;;11.17;100.00
11114;BME280;5610;52.154;9.198;2023-02-12T14:23:01;102938.78;;;11.07;100.00
11114;BME280;5610;52.154;9.198;2023-02-12T14:25:55;102939.75;;;11.03;100.00
11114;BME280;5610;52.154;9.198;2023-02-12T14:28:46;102949.59;;;11.01;100.00
11114;BME280;5610;52.154;9.198;2023-02-12T14:31:34;102950.53;;;10.98;100.00
11114;BME280;5610;52.154;9.198;2023-02-12T14:34:47;102953.19;;;10.98;100.00
11114;BME280;5610;52.154;9.198;2023-02-12T14:37:36;102945.25;;;10.97;100.00
11114;BME280;5610;52.154;9.198;2023-02-12T14:40:40;102950.63;;;10.95;100.00
11114;BME280;5610;52.154;9.198;2023-02-12T14:43:30;102958.78;;;10.89;100.00
11114;BME280;5610;52.154;9.198;2023-02-12T14:46:43;102957.00;;;10.90;100.00
11114;BME280;5610;52.154;9.198;2023-02-12T14:49:32;102955.25;;;10.89;100.00
11114;BME280;5610;52.154;9.198;2023-02-12T14:52:22;102949.31;;;10.78;100.00
11114;BME280;5610;52.154;9.198;2023-02-12T14:55:20;102954.63;;;10.78;100.00
11114;BME280;5610;52.154;9.198;2023-02-12T14:58:16;102953.97;;;10.69;100.00
11114;BME280;5610;52.154;9.198;2023-02-12T15:01:02;102949.47;;;10.71;100.00
11114;BME280;5610;52.154;9.198;2023-02-12T15:03:51;102956.63;;;10.69;100.00
11114;BME280;5610;52.154;9.198;2023-02-12T15:06:42;102957.50;;;10.71;100.00